Time;durP1;ratioP1;P1;durP2;ratioP2;P2;SDS_P1;SDS_P2;PMS_P1;PMS_P2;Temp;Humidity;BMP_temperature;BMP_pressure;BME280_temperature;BME280_humidity;BME280_pressure;Samples;Min_cycle;Max_cycle;Signal;HPM_P1;HPM_P2
2022/03/13 00:00:21;;;;;;;17.42;10.75;;;;;;;6.46;40.78;99880.03;1088278;54;20010;-85
2022/03/13 00:01:26;;;;;;;;;;;;;;;6.37;41.05;99881.63;1088094;54;20057;-85
2022/03/13 00:02:27;;;;;;;16.58;11.48;;;;;;;6.35;40.61;99887.03;1089295;46;19933;-84
2022/03/13 00:03:37;;;;;;;13.95;9.88;;;;;;;6.38;40.63;99884.16;1088156;54;20035;-83
2022/03/13 00:04:39;;;;;;;14.57;10.20;;;;;;;6.34;40.67;99887.16;1088241;54;20110;-83
2022/03/13 00:05:46;;;;;;;16.83;12.07;;;;;;;6.32;40.62;99884.66;1088244;54;20042;-82
2022/03/13 00:06:49;;;;;;;18.88;12.50;;;;;;;6.26;40.81;99874.50;1088180;54;20086;-84
2022/03/13 00:07:56;;;;;;;15.57;11.30;;;;;;;6.30;40.81;99881.25;1088101;54;20034;-84
2022/03/13 00:09:02;;;;;;;16.17;11.20;;;;;;;6.28;40.66;99883.19;1088231;54;20015;-84
2022/03/13 00:10:05;;;;;;;15.63;10.77;;;;;;;6.29;40.94;99882.22;1088230;54;20035;-85
2022/03/13 00:11:17;;;;;;;16.63;12.02;;;;;;;6.31;40.95;99882.09;1088211;54;20064;-86
2022/03/13 00:12:29;;;;;;;14.52;10.48;;;;;;;6.26;40.90;99885.09;1087873;54;20042;-85
2022/03/13 00:13:35;;;;;;;16.42;11.13;;;;;;;6.28;40.98;99885.00;1088109;54;20094;-82
2022/03/13 00:14:43;;;;;;;15.85;10.43;;;;;;;6.34;40.61;99881.84;1088010;54;20034;-85
2022/03/13 00:15:51;;;;;;;15.68;10.65;;;;;;;6.36;40.73;99886.06;1087842;54;20034;-85
2022/03/13 00:16:54;;;;;;;13.50;9.27;;;;;;;6.38;40.36;99883.28;1088227;54;20041;-84
2022/03/13 00:17:59;;;;;;;14.15;9.82;;;;;;;6.36;40.63;99888.72;1091658;47;20086;-82
2022/03/13 00:19:06;;;;;;;15.93;10.90;;;;;;;6.37;40.65;99881.63;1088350;47;20047;-85
2022/03/13 00:20:11;;;;;;;15.57;10.98;;;;;;;6.39;40.52;99885.84;1088221;54;20066;-83
2022/03/13 00:21:14;;;;;;;15.35;10.15;;;;;;;6.39;40.53;99885.84;1088170;54;20038;-84
2022/03/13 00:22:19;;;;;;;15.00;10.05;;;;;;;6.39;40.58;99879.66;1091193;39;20621;-85
2022/03/13 00:23:20;;;;;;;15.35;10.77;;;;;;;6.40;40.32;99884.88;1088209;54;20026;-84
2022/03/13 00:24:25;;;;;;;15.05;10.35;;;;;;;6.38;40.44;99886.81;1090953;47;20046;-84
2022/03/13 00:25:27;;;;;;;13.07;9.32;;;;;;;6.40;40.64;99886.66;1088947;47;20138;-84
2022/03/13 00:26:35;;;;;;;16.88;11.63;;;;;;;6.36;40.67;99880.75;1088147;54;20116;-84
2022/03/13 00:27:36;;;;;;;16.98;11.35;;;;;;;6.32;40.85;99879.34;1088237;54;20023;-85
2022/03/13 00:28:41;;;;;;;16.60;11.50;;;;;;;6.35;40.86;99884.38;1088146;54;20074;-84
2022/03/13 00:29:42;;;;;;;18.33;12.40;;;;;;;6.34;41.12;99877.38;1088215;54;20026;-84
2022/03/13 00:30:47;;;;;;;15.70;11.40;;;;;;;6.34;41.19;99882.69;1088230;54;20092;-83
2022/03/13 00:31:48;;;;;;;15.77;10.93;;;;;;;6.36;41.10;99888.72;1087879;54;20086;-85
2022/03/13 00:32:53;;;;;;;14.48;10.18;;;;;;;6.35;41.13;99884.38;1087978;54;20015;-85
2022/03/13 00:33:54;;;;;;;15.30;10.93;;;;;;;6.34;41.18;99881.84;1088222;54;20026;-84
2022/03/13 00:35:02;;;;;;;15.50;10.45;;;;;;;6.35;41.26;99873.75;1088103;54;20030;-80
2022/03/13 00:36:04;;;;;;;16.10;10.25;;;;;;;6.34;41.33;99880.03;1087889;54;20041;-83
2022/03/13 00:37:08;;;;;;;17.30;11.32;;;;;;;6.33;41.34;99886.31;1088083;54;20034;-84
2022/03/13 00:38:13;;;;;;;15.43;10.85;;;;;;;6.32;41.19;99879.34;1088411;54;20363;-84
2022/03/13 00:39:15;;;;;;;15.23;10.50;;;;;;;6.31;41.37;99884.75;1088437;54;20038;-85
2022/03/13 00:40:20;;;;;;;15.27;10.27;;;;;;;6.23;41.49;99880.91;1088532;54;20146;-82
2022/03/13 00:41:22;;;;;;;16.70;11.32;;;;;;;6.26;41.50;99890.41;1091613;46;20043;-83
2022/03/13 00:42:26;;;;;;;15.48;9.77;;;;;;;6.27;41.58;99886.81;1088387;54;20019;-83
2022/03/13 00:43:28;;;;;;;16.33;10.45;;;;;;;6.26;41.78;99885.09;1088466;54;20051;-84
2022/03/13 00:44:33;;;;;;;15.35;10.90;;;;;;;6.17;41.88;99888.50;1088820;46;20744;-84
2022/03/13 00:45:34;;;;;;;16.58;11.27;;;;;;;6.01;42.32;99881.72;1088552;54;20041;-84
2022/03/13 00:46:38;;;;;;;16.60;11.95;;;;;;;5.97;42.36;99882.88;1088524;54;20101;-83
2022/03/13 00:47:40;;;;;;;16.85;11.10;;;;;;;6.05;42.15;99877.84;1088439;54;20809;-85
2022/03/13 00:48:44;;;;;;;15.18;10.52;;;;;;;6.12;42.12;99874.75;1088039;54;20682;-84
2022/03/13 00:49:46;;;;;;;17.55;11.15;;;;;;;6.14;41.98;99872.81;1088076;54;20042;-84
2022/03/13 00:50:53;;;;;;;14.95;10.35;;;;;;;6.07;42.17;99878.59;1088569;39;20654;-83
2022/03/13 00:51:57;;;;;;;17.85;10.55;;;;;;;6.07;42.01;99875.94;1088057;54;20030;-84
2022/03/13 00:53:01;;;;;;;18.10;10.65;;;;;;;6.05;42.07;99872.56;1088180;54;20027;-84
2022/03/13 00:54:06;;;;;;;14.90;11.10;;;;;;;6.03;41.95;99881.59;1088439;54;20034;-84
2022/03/13 00:55:09;;;;;;;14.38;9.75;;;;;;;6.07;42.08;99880.41;1088470;54;20039;-83
2022/03/13 00:56:14;;;;;;;14.90;10.30;;;;;;;6.06;41.97;99871.59;1088366;54;20041;-84
2022/03/13 00:57:17;;;;;;;14.30;10.30;;;;;;;6.04;41.71;99881.50;1088416;54;20742;-83
2022/03/13 00:58:21;;;;;;;13.82;9.65;;;;;;;6.00;42.08;99880.03;1088492;54;20034;-84
2022/03/13 00:59:23;;;;;;;14.85;10.93;;;;;;;5.97;41.92;99880.25;1089601;46;20059;-83
2022/03/13 01:00:28;;;;;;;16.05;10.93;;;;;;;5.98;41.88;99883.75;1088406;54;20030;-85
2022/03/13 01:01:30;;;;;;;14.48;11.00;;;;;;;5.95;42.14;99882.19;1088493;54;20046;-82
2022/03/13 01:02:35;;;;;;;14.68;10.18;;;;;;;5.96;41.93;99880.38;1088465;54;20038;-83
2022/03/13 01:03:48;;;;;;;14.63;9.75;;;;;;;5.96;42.27;99875.88;1088430;54;20039;-84
2022/03/13 01:04:53;;;;;;;15.57;10.23;;;;;;;6.01;41.84;99881.72;1088391;54;20754;-83
2022/03/13 01:05:57;;;;;;;15.43;10.70;;;;;;;5.97;41.79;99874.09;1088445;54;20038;-83
2022/03/13 01:07:01;;;;;;;14.30;10.02;;;;;;;5.98;41.94;99875.78;1088468;54;20030;-84
2022/03/13 01:08:03;;;;;;;12.95;9.57;;;;;;;5.92;41.92;99871.81;1088030;54;20031;-83
2022/03/13 01:09:07;;;;;;;15.20;10.27;;;;;;;5.90;42.16;99877.22;1088551;39;21057;-83
2022/03/13 01:10:12;;;;;;;15.15;10.80;;;;;;;5.87;42.23;99874.81;1088376;54;20034;-86
2022/03/13 01:11:16;;;;;;;14.95;10.35;;;;;;;5.88;42.22;99870.34;1088496;54;20015;-83
2022/03/13 01:12:20;;;;;;;15.90;10.63;;;;;;;5.84;42.11;99876.88;1088511;54;20030;-84
2022/03/13 01:13:22;;;;;;;14.23;10.45;;;;;;;5.81;42.36;99869.13;1088426;54;20702;-83
2022/03/13 01:14:27;;;;;;;16.60;10.27;;;;;;;5.82;42.40;99870.81;1088491;54;20015;-84
2022/03/13 01:15:30;;;;;;;18.80;11.68;;;;;;;5.81;42.26;99872.63;1088463;54;20099;-83
2022/03/13 01:16:38;;;;;;;15.57;11.20;;;;;;;5.78;42.57;99871.06;1088490;54;20023;-82
2022/03/13 01:17:39;;;;;;;15.77;11.38;;;;;;;5.75;42.41;99868.66;1088479;54;20018;-81
2022/03/13 01:18:47;;;;;;;15.27;10.80;;;;;;;5.76;42.55;99872.97;1088451;54;20030;-81
2022/03/13 01:19:51;;;;;;;16.20;10.75;;;;;;;5.72;42.53;99868.03;1088996;39;20658;-83
2022/03/13 01:20:52;;;;;;;15.27;10.65;;;;;;;5.71;42.47;99869.00;1088600;54;20026;-83
2022/03/13 01:22:00;;;;;;;16.77;11.00;;;;;;;5.72;42.46;99866.22;1088588;54;20026;-83
2022/03/13 01:23:01;;;;;;;17.17;11.38;;;;;;;5.68;42.38;99859.47;1088584;54;20042;-84
2022/03/13 01:24:29;;;;;;;17.40;11.00;;;;;;;5.67;43.05;99865.72;1088475;54;20034;-81
2022/03/13 01:25:32;;;;;;;15.05;10.18;;;;;;;5.66;42.70;99865.84;1088271;54;20054;-82
2022/03/13 01:26:39;;;;;;;18.77;11.15;;;;;;;5.66;42.59;99865.84;1088496;54;20041;-84
2022/03/13 01:27:43;;;;;;;14.30;10.32;;;;;;;5.66;42.61;99865.84;1088629;54;20040;-84
2022/03/13 01:28:46;;;;;;;15.40;10.18;;;;;;;5.66;42.53;99866.72;1088603;54;20026;-83
2022/03/13 01:29:50;;;;;;;15.27;10.15;;;;;;;5.65;42.54;99865.00;1092168;39;20703;-82
2022/03/13 01:30:52;;;;;;;15.48;10.73;;;;;;;5.62;42.66;99863.41;1088636;54;20019;-83
2022/03/13 01:31:57;;;;;;;17.15;11.10;;;;;;;5.60;42.77;99861.84;1088635;54;20030;-83
2022/03/13 01:33:00;;;;;;;15.40;10.48;;;;;;;5.60;42.94;99864.50;1088621;54;20059;-85
2022/03/13 01:34:06;;;;;;;16.25;10.43;;;;;;;5.55;43.19;99858.72;1088560;54;20022;-84
2022/03/13 01:35:10;;;;;;;16.70;10.90;;;;;;;5.55;42.83;99864.84;1088646;54;20034;-83
2022/03/13 01:36:14;;;;;;;15.25;11.00;;;;;;;5.55;43.00;99866.69;1088617;54;20031;-83
2022/03/13 01:37:30;;;;;;;16.08;10.38;;;;;;;5.53;43.17;99861.47;1088632;54;20107;-84
2022/03/13 01:38:33;;;;;;;15.55;10.93;;;;;;;5.44;43.29;99865.69;1100020;31;20725;-83
2022/03/13 01:39:37;;;;;;;15.13;10.65;;;;;;;5.49;43.14;99860.03;1088643;54;20019;-83
2022/03/13 01:40:41;;;;;;;14.90;10.77;;;;;;;5.52;43.22;99859.81;1089035;46;20035;-82
2022/03/13 01:41:43;;;;;;;17.08;11.38;;;;;;;5.47;43.37;99862.81;1088435;54;20045;-83
2022/03/13 01:42:47;;;;;;;17.08;11.40;;;;;;;5.40;44.08;99856.25;1088472;54;20021;-84
2022/03/13 01:43:49;;;;;;;16.52;11.88;;;;;;;5.33;44.43;99860.34;1088534;54;20022;-82
2022/03/13 01:44:53;;;;;;;16.58;11.90;;;;;;;5.31;44.76;99857.81;1088671;54;20037;-83
2022/03/13 01:45:56;;;;;;;16.42;11.40;;;;;;;5.39;44.64;99865.16;1088601;54;20030;-84
2022/03/13 01:47:02;;;;;;;18.88;12.88;;;;;;;5.13;46.05;99857.38;1088619;54;20034;-82
2022/03/13 01:48:07;;;;;;;21.27;14.23;;;;;;;4.82;47.56;99869.41;1088421;54;20035;-82
2022/03/13 01:49:09;;;;;;;23.65;15.90;;;;;;;4.59;48.17;99860.47;1090390;39;20641;-83
2022/03/13 01:50:14;;;;;;;22.63;15.38;;;;;;;4.45;48.89;99869.41;1088544;54;20103;-83
2022/03/13 01:51:16;;;;;;;21.63;15.85;;;;;;;4.40;48.83;99869.75;1097284;39;20634;-82
2022/03/13 01:52:28;;;;;;;23.17;15.05;;;;;;;4.22;49.75;99858.66;1090530;39;20630;-84
2022/03/13 01:53:31;;;;;;;23.40;16.23;;;;;;;4.19;49.49;99861.53;1088551;54;20023;-85
2022/03/13 01:54:36;;;;;;;24.42;16.35;;;;;;;4.08;49.62;99861.44;1088501;54;20021;-82
2022/03/13 01:55:39;;;;;;;22.35;15.60;;;;;;;4.08;49.76;99864.91;1088535;54;20035;-83
2022/03/13 01:56:44;;;;;;;22.52;15.57;;;;;;;4.09;49.55;99860.47;1088556;54;20019;-82
2022/03/13 01:57:49;;;;;;;22.05;15.43;;;;;;;4.14;49.17;99866.28;1088598;54;20045;-81
2022/03/13 01:58:52;;;;;;;21.08;14.77;;;;;;;4.05;49.30;99862.50;1088375;54;20090;-82
2022/03/13 02:00:01;;;;;;;22.25;15.40;;;;;;;4.02;49.63;99868.81;1088444;54;20094;-82
2022/03/13 02:01:03;;;;;;;19.75;13.93;;;;;;;3.98;49.61;99870.00;1088589;54;20043;-83
2022/03/13 02:02:07;;;;;;;23.27;15.27;;;;;;;3.99;49.65;99863.78;1088700;47;20018;-82
2022/03/13 02:03:09;;;;;;;23.38;15.93;;;;;;;3.97;49.68;99865.66;1088378;54;20026;-83
2022/03/13 02:04:14;;;;;;;23.38;16.67;;;;;;;3.99;49.71;99862.91;1088452;54;20736;-82
2022/03/13 02:05:33;;;;;;;24.35;15.25;;;;;;;3.91;51.11;99860.81;1088430;54;20851;-82
2022/03/13 02:06:35;;;;;;;23.80;15.45;;;;;;;3.86;50.42;99861.13;1088505;54;20031;-82
2022/03/13 02:07:47;;;;;;;24.58;15.75;;;;;;;3.79;51.39;99862.50;1088498;54;20046;-82
2022/03/13 02:08:50;;;;;;;24.00;17.10;;;;;;;3.71;51.00;99870.09;1088507;54;20018;-82
2022/03/13 02:10:08;;;;;;;23.23;14.75;;;;;;;3.65;51.31;99865.25;1087986;54;20018;-82
2022/03/13 02:11:36;;;;;;;22.65;15.73;;;;;;;3.64;51.47;99869.69;1090985;46;20022;-87
2022/03/13 02:14:21;;;;;;;;;;;;;;;;;;;;;
2022/03/13 02:16:29;;;;;;;20.50;15.10;;;;;;;3.48;52.00;99864.59;1088205;54;20027;-84
2022/03/13 02:17:39;;;;;;;27.67;16.45;;;;;;;3.40;51.78;99861.63;1088494;54;20018;-83
2022/03/13 02:18:44;;;;;;;;;;;;;;;3.35;52.31;99869.00;1090893;46;20054;-83
2022/03/13 02:20:00;;;;;;;21.83;16.00;;;;;;;3.32;51.61;99869.22;1089181;46;19991;-84
2022/03/13 02:21:13;;;;;;;24.50;15.45;;;;;;;3.21;52.00;99872.56;1088465;54;20025;-81
2022/03/13 02:22:33;;;;;;;24.88;16.40;;;;;;;3.14;51.86;99864.19;1088626;54;20033;-84
2022/03/13 02:23:43;;;;;;;22.52;14.75;;;;;;;3.07;51.83;99866.41;1091128;46;20014;-83
2022/03/13 02:24:52;;;;;;;22.90;15.85;;;;;;;2.96;52.13;99869.75;1088511;54;20065;-82
2022/03/13 02:26:21;;;;;;;22.10;15.60;;;;;;;2.89;52.13;99862.31;1088616;54;20022;-84
2022/03/13 02:27:29;;;;;;;23.13;15.48;;;;;;;2.87;51.98;99870.34;1088594;54;20072;-84
2022/03/13 02:28:33;;;;;;;21.77;15.02;;;;;;;2.83;52.12;99862.72;1096095;46;20026;-82
2022/03/13 02:29:37;;;;;;;22.27;15.50;;;;;;;2.89;51.83;99867.59;1088390;54;20045;-82
2022/03/13 02:30:39;;;;;;;21.45;14.55;;;;;;;2.89;51.57;99873.75;1088472;54;20106;-83
2022/03/13 02:31:44;;;;;;;21.98;15.00;;;;;;;2.89;51.69;99868.47;1088364;54;20046;-83
2022/03/13 02:32:46;;;;;;;24.67;14.98;;;;;;;2.89;51.58;99871.09;1088214;54;20011;-82
2022/03/13 02:33:50;;;;;;;29.10;14.80;;;;;;;2.85;52.07;99866.13;1088379;54;20026;-83
2022/03/13 02:34:57;;;;;;;21.83;14.50;;;;;;;2.86;51.86;99862.53;1088453;54;20042;-83
2022/03/13 02:36:12;;;;;;;22.20;14.20;;;;;;;2.88;51.82;99863.28;1088252;54;20026;-84
2022/03/13 02:37:32;;;;;;;25.33;15.55;;;;;;;2.90;51.73;99858.75;1088338;54;20019;-82
2022/03/13 02:38:34;;;;;;;21.33;14.77;;;;;;;2.97;51.38;99863.53;1088371;54;20038;-82
2022/03/13 02:39:40;;;;;;;20.23;13.77;;;;;;;3.14;51.07;99861.56;1088224;54;20034;-83
2022/03/13 02:40:42;;;;;;;20.80;14.13;;;;;;;3.17;50.67;99860.50;1088214;54;20039;-83
2022/03/13 02:41:48;;;;;;;19.92;13.95;;;;;;;3.26;50.57;99863.41;1090255;39;20594;-82
2022/03/13 02:42:52;;;;;;;17.80;12.32;;;;;;;3.40;50.14;99859.84;1088386;54;20034;-82
2022/03/13 02:43:55;;;;;;;18.85;12.88;;;;;;;3.51;50.01;99859.09;1092474;39;20751;-83
2022/03/13 02:45:00;;;;;;;18.00;12.07;;;;;;;3.56;49.80;99859.66;1088456;54;20070;-82
2022/03/13 02:46:02;;;;;;;19.70;12.85;;;;;;;3.67;49.68;99860.72;1088167;54;20023;-83
2022/03/13 02:47:08;;;;;;;16.70;12.13;;;;;;;3.64;49.75;99858.25;1088314;54;20041;-82
2022/03/13 02:48:11;;;;;;;17.38;11.80;;;;;;;3.70;49.66;99857.84;1088258;54;20038;-82
2022/03/13 02:49:20;;;;;;;28.30;13.20;;;;;;;3.72;49.87;99851.50;1088347;54;20042;-82
2022/03/13 02:50:25;;;;;;;16.20;11.35;;;;;;;3.77;49.70;99851.19;1088212;54;20019;-81
2022/03/13 02:51:27;;;;;;;18.73;12.20;;;;;;;3.80;49.61;99850.97;1089721;46;21041;-85
2022/03/13 02:52:32;;;;;;;17.42;11.75;;;;;;;3.85;49.52;99850.66;1088280;54;20034;-82
2022/03/13 02:53:34;;;;;;;16.08;11.13;;;;;;;3.84;49.46;99856.88;1088219;54;20761;-82
2022/03/13 02:54:41;;;;;;;16.20;12.40;;;;;;;3.88;49.54;99853.09;1088238;54;20086;-82
2022/03/13 02:55:44;;;;;;;16.48;11.65;;;;;;;3.90;49.26;99857.31;1088260;54;20026;-84
2022/03/13 02:56:52;;;;;;;17.42;12.23;;;;;;;3.95;49.26;99857.00;1088287;54;20018;-82
2022/03/13 02:57:57;;;;;;;21.77;15.10;;;;;;;3.65;50.33;99865.25;1088338;54;20062;-83
2022/03/13 02:59:01;;;;;;;19.10;14.80;;;;;;;3.53;50.91;99854.56;1088256;54;20018;-84
2022/03/13 03:00:08;;;;;;;18.30;14.20;;;;;;;3.52;50.78;99858.16;1088220;54;20027;-85
2022/03/13 03:01:13;;;;;;;21.60;14.13;;;;;;;3.66;50.12;99862.50;1088351;54;20022;-83
2022/03/13 03:02:24;;;;;;;16.45;12.43;;;;;;;3.75;49.89;99855.75;1088408;54;20034;-83
2022/03/13 03:03:27;;;;;;;18.30;11.93;;;;;;;3.82;49.60;99859.66;1088327;54;20027;-83
2022/03/13 03:04:34;;;;;;;18.13;11.82;;;;;;;3.90;49.41;99862.59;1088357;54;20026;-87
2022/03/13 03:05:37;;;;;;;20.17;11.18;;;;;;;3.95;48.90;99864.09;1088319;54;20038;-85
2022/03/13 03:06:50;;;;;;;21.10;13.30;;;;;;;3.80;49.33;99861.53;1088826;46;20019;-83
2022/03/13 03:07:52;;;;;;;18.77;13.15;;;;;;;3.70;50.04;99860.47;1088170;54;20034;-83
2022/03/13 03:08:56;;;;;;;18.75;12.63;;;;;;;3.70;49.86;99858.69;1088246;54;20015;-83
2022/03/13 03:10:03;;;;;;;18.70;13.45;;;;;;;3.65;50.56;99858.16;1088223;54;20034;-82
2022/03/13 03:11:05;;;;;;;18.40;13.30;;;;;;;3.57;50.53;99863.13;1087727;54;20030;-83
2022/03/13 03:12:11;;;;;;;19.83;13.68;;;;;;;3.46;50.98;99868.28;1088207;54;20106;-82
2022/03/13 03:13:15;;;;;;;24.60;14.93;;;;;;;3.39;51.06;99866.06;1088214;54;20050;-83
2022/03/13 03:14:19;;;;;;;20.55;14.48;;;;;;;3.31;51.40;99863.09;1088224;54;20035;-82
2022/03/13 03:15:23;;;;;;;23.45;14.15;;;;;;;3.30;51.29;99863.19;1088255;54;20019;-83
2022/03/13 03:16:27;;;;;;;19.92;14.27;;;;;;;3.25;51.38;99864.34;1088247;54;20034;-83
2022/03/13 03:17:28;;;;;;;19.75;13.60;;;;;;;3.23;51.37;99862.75;1088207;54;20030;-83
2022/03/13 03:18:33;;;;;;;19.52;13.48;;;;;;;3.30;51.29;99865.84;1088333;54;20034;-84
2022/03/13 03:19:35;;;;;;;21.40;13.38;;;;;;;3.32;50.98;99861.28;1088236;54;20026;-83
2022/03/13 03:20:42;;;;;;;19.25;13.57;;;;;;;3.30;51.08;99866.69;1088195;54;20062;-83
2022/03/13 03:21:44;;;;;;;20.40;13.98;;;;;;;3.25;51.18;99856.41;1088169;54;20042;-83
2022/03/13 03:22:48;;;;;;;22.40;13.73;;;;;;;3.24;51.03;99861.81;1088050;54;20099;-83
2022/03/13 03:23:51;;;;;;;22.27;14.25;;;;;;;3.18;51.44;99865.72;1088166;54;20038;-83
2022/03/13 03:24:55;;;;;;;19.25;14.15;;;;;;;3.21;51.30;99862.84;1088246;54;20041;-81
2022/03/13 03:25:59;;;;;;;20.27;14.02;;;;;;;3.23;51.09;99863.59;1092119;39;20599;-83
2022/03/13 03:27:04;;;;;;;20.35;14.13;;;;;;;3.17;51.36;99863.16;1088158;54;20034;-82
2022/03/13 03:28:05;;;;;;;19.35;14.18;;;;;;;3.12;51.64;99863.44;1088355;54;20030;-82
2022/03/13 03:29:11;;;;;;;21.33;14.25;;;;;;;3.06;52.07;99866.50;1088186;54;20038;-83
2022/03/13 03:30:12;;;;;;;20.35;14.15;;;;;;;3.06;51.91;99869.16;1088140;54;20082;-83
2022/03/13 03:31:19;;;;;;;22.77;13.80;;;;;;;3.09;51.86;99861.03;1088181;54;20019;-83
2022/03/13 03:32:48;;;;;;;23.73;14.05;;;;;;;3.08;52.22;99867.25;1088175;54;20788;-83
2022/03/13 03:33:57;;;;;;;22.75;14.07;;;;;;;3.14;51.67;99856.28;1088176;54;20030;-83
2022/03/13 03:35:01;;;;;;;18.73;12.88;;;;;;;3.20;51.09;99858.53;1088050;54;20037;-83
2022/03/13 03:36:05;;;;;;;17.70;12.20;;;;;;;3.26;51.25;99865.19;1088181;54;20030;-82
2022/03/13 03:37:10;;;;;;;18.02;11.95;;;;;;;3.39;50.66;99859.94;1088062;54;20034;-83
2022/03/13 03:38:12;;;;;;;22.15;13.90;;;;;;;3.21;51.20;99867.28;1088117;54;20060;-82
2022/03/13 03:39:17;;;;;;;21.90;13.43;;;;;;;3.11;51.42;99867.91;1087871;54;20026;-82
2022/03/13 03:40:21;;;;;;;18.88;13.48;;;;;;;3.01;52.14;99868.63;1087980;54;20036;-83
2022/03/13 03:41:28;;;;;;;21.50;13.13;;;;;;;3.05;52.32;99872.72;1088090;54;20030;-85
2022/03/13 03:42:33;;;;;;;21.60;13.82;;;;;;;3.04;52.09;99878.97;1088057;54;20021;-82
2022/03/13 03:43:35;;;;;;;23.60;15.18;;;;;;;2.88;52.86;99879.13;1092110;39;20687;-81
2022/03/13 03:44:39;;;;;;;21.45;14.80;;;;;;;2.85;53.23;99882.81;1087922;54;20023;-81
2022/03/13 03:45:41;;;;;;;21.55;15.18;;;;;;;2.71;54.11;99880.22;1087899;54;20038;-81
2022/03/13 03:46:46;;;;;;;20.52;14.23;;;;;;;2.72;54.22;99874.00;1087813;54;20103;-81
2022/03/13 03:47:48;;;;;;;23.02;15.45;;;;;;;2.72;54.39;99881.91;1087763;54;20061;-81
2022/03/13 03:48:52;;;;;;;21.60;15.40;;;;;;;2.68;54.65;99872.47;1087752;54;20033;-81
2022/03/13 03:49:57;;;;;;;20.70;14.50;;;;;;;2.67;54.67;99883.97;1090881;39;20673;-81
2022/03/13 03:50:58;;;;;;;18.52;13.55;;;;;;;2.72;54.69;99874.81;1087906;54;20050;-83
2022/03/13 03:52:03;;;;;;;17.85;13.20;;;;;;;2.79;54.51;99873.47;1087901;54;20042;-82
2022/03/13 03:53:05;;;;;;;21.08;14.23;;;;;;;2.69;54.85;99869.78;1087815;54;20042;-81
2022/03/13 03:54:10;;;;;;;27.25;14.65;;;;;;;2.58;55.54;99878.34;1087749;54;20109;-81
2022/03/13 03:55:13;;;;;;;19.52;14.70;;;;;;;2.48;56.15;99877.25;1087975;54;20041;-82
2022/03/13 03:56:17;;;;;;;22.15;15.85;;;;;;;2.44;56.34;99876.59;1087970;54;20038;-82
2022/03/13 03:57:21;;;;;;;23.17;15.27;;;;;;;2.48;56.44;99875.47;1088082;47;20030;-82
2022/03/13 03:58:26;;;;;;;20.88;14.07;;;;;;;2.68;55.62;99869.84;1088034;54;20054;-82
2022/03/13 03:59:27;;;;;;;22.80;13.70;;;;;;;2.84;54.89;99869.72;1087954;54;20037;-82
2022/03/13 04:00:37;;;;;;;20.42;14.07;;;;;;;2.89;54.74;99863.19;1087852;54;20785;-82
2022/03/13 04:01:40;;;;;;;18.00;12.55;;;;;;;2.94;54.28;99871.63;1088074;54;20019;-82
2022/03/13 04:02:45;;;;;;;18.92;12.57;;;;;;;3.01;53.86;99871.25;1087857;54;20046;-82
2022/03/13 04:03:47;;;;;;;18.50;12.57;;;;;;;2.95;53.71;99869.88;1087933;54;20026;-82
2022/03/13 04:04:51;;;;;;;23.85;14.00;;;;;;;2.73;54.33;99870.41;1087975;54;20041;-82
2022/03/13 04:05:53;;;;;;;20.17;13.82;;;;;;;2.57;55.10;99870.53;1087937;54;20745;-82
2022/03/13 04:06:57;;;;;;;21.02;14.60;;;;;;;2.53;55.26;99869.91;1088106;54;20037;-81
2022/03/13 04:07:59;;;;;;;22.98;14.88;;;;;;;2.54;55.14;99868.94;1087964;54;20041;-83
2022/03/13 04:09:03;;;;;;;21.73;15.45;;;;;;;2.57;55.01;99873.19;1087849;54;20034;-80
2022/03/13 04:10:07;;;;;;;21.98;14.35;;;;;;;2.60;55.10;99870.31;1088019;54;20729;-82
2022/03/13 04:11:12;;;;;;;21.25;14.88;;;;;;;2.58;55.04;99867.78;1087779;54;20031;-82
2022/03/13 04:12:16;;;;;;;22.95;14.38;;;;;;;2.66;54.78;99867.31;1087944;54;20033;-80
2022/03/13 04:13:21;;;;;;;20.05;13.05;;;;;;;2.83;54.40;99863.59;1087939;54;20041;-82
2022/03/13 04:14:26;;;;;;;20.27;13.32;;;;;;;2.93;53.95;99864.66;1089275;47;20054;-82
2022/03/13 04:15:28;;;;;;;17.90;11.85;;;;;;;3.01;53.58;99861.53;1088122;54;20722;-83
2022/03/13 04:16:32;;;;;;;20.20;12.60;;;;;;;3.04;53.57;99866.63;1088111;54;20074;-82
2022/03/13 04:17:35;;;;;;;16.70;11.68;;;;;;;3.10;53.42;99862.72;1088047;54;20086;-82
2022/03/13 04:18:40;;;;;;;18.55;12.38;;;;;;;3.15;53.41;99862.44;1088046;54;20026;-81
2022/03/13 04:19:41;;;;;;;15.95;10.75;;;;;;;3.16;53.29;99869.41;1091521;31;20742;-85
2022/03/13 04:20:46;;;;;;;17.30;11.95;;;;;;;3.22;52.87;99858.41;1088284;54;20025;-82
2022/03/13 04:21:48;;;;;;;17.95;10.93;;;;;;;3.19;53.02;99862.13;1088300;54;20034;-82
2022/03/13 04:23:02;;;;;;;17.73;11.90;;;;;;;3.21;53.34;99859.38;1089250;47;20022;-84
2022/03/13 04:24:11;;;;;;;17.45;11.18;;;;;;;3.21;52.96;99868.13;1088213;54;20015;-82
2022/03/13 04:25:16;;;;;;;17.13;11.00;;;;;;;3.22;52.96;99863.69;1088303;54;20022;-82
2022/03/13 04:27:48;;;;;;;17.48;12.90;;;;;;;3.17;52.72;99861.38;1087819;54;20026;-83
2022/03/13 04:28:52;;;;;;;18.90;12.30;;;;;;;3.17;52.83;99860.50;1087565;54;20030;-83
2022/03/13 04:29:56;;;;;;;18.08;12.10;;;;;;;3.16;52.79;99859.66;1087696;54;20057;-83
2022/03/13 04:31:08;;;;;;;18.77;12.50;;;;;;;3.14;53.13;99860.72;1103664;39;20708;-82
2022/03/13 04:32:22;;;;;;;18.70;12.20;;;;;;;3.16;52.70;99867.59;1087752;54;20034;-84
2022/03/13 04:33:27;;;;;;;14.65;10.55;;;;;;;3.15;52.88;99855.34;1087702;54;20030;-83
2022/03/13 04:34:31;;;;;;;15.57;10.68;;;;;;;3.18;52.54;99857.78;1087688;54;20031;-83
2022/03/13 04:35:34;;;;;;;17.55;11.02;;;;;;;3.21;52.39;99867.28;1087806;54;20045;-83
2022/03/13 04:36:40;;;;;;;17.20;11.35;;;;;;;3.19;52.63;99867.41;1088832;47;20090;-82
2022/03/13 04:37:43;;;;;;;15.73;10.70;;;;;;;3.21;52.48;99862.00;1087663;54;20098;-82
2022/03/13 04:38:48;;;;;;;15.93;11.38;;;;;;;3.15;52.58;99863.25;1087751;54;20034;-82
2022/03/13 04:39:52;;;;;;;19.30;11.18;;;;;;;3.12;52.66;99863.44;1088193;47;20034;-81
2022/03/13 04:40:58;;;;;;;18.33;11.77;;;;;;;3.09;52.95;99863.69;1087535;54;20023;-82
2022/03/13 04:42:00;;;;;;;17.17;12.23;;;;;;;3.14;52.72;99860.72;1088562;47;20035;-81
2022/03/13 04:43:06;;;;;;;14.25;10.68;;;;;;;3.17;52.44;99850.81;1087695;54;20042;-82
2022/03/13 04:44:14;;;;;;;19.73;12.02;;;;;;;3.15;52.93;99854.50;1087652;54;20027;-83
2022/03/13 04:45:19;;;;;;;17.08;12.52;;;;;;;3.03;53.38;99854.34;1087719;54;20030;-82
2022/03/13 04:46:23;;;;;;;18.27;12.65;;;;;;;3.03;53.44;99856.13;1087977;47;20038;-84
2022/03/13 11:20:08;;;;;;;16.48;12.45;;;;;;;14.43;27.13;99777.56;1088199;54;20022;-81
2022/03/13 11:21:10;;;;;;;13.63;10.60;;;;;;;14.49;27.43;99782.28;1088241;54;20041;-80
2022/03/13 11:22:17;;;;;;;14.80;10.98;;;;;;;14.49;27.40;99780.41;1088363;54;20025;-81
2022/03/13 11:23:23;;;;;;;15.82;11.45;;;;;;;14.58;27.32;99781.22;1088182;54;20035;-80
2022/03/13 11:24:24;;;;;;;15.07;11.57;;;;;;;14.55;27.19;99780.72;1088332;54;20034;-82
2022/03/13 11:25:29;;;;;;;15.63;11.65;;;;;;;14.47;27.51;99781.59;1090382;46;20018;-83
2022/03/13 11:26:31;;;;;;;17.17;12.65;;;;;;;14.39;27.21;99777.09;1088413;54;20041;-81
2022/03/13 11:27:48;;;;;;;17.52;12.90;;;;;;;14.28;27.67;99772.09;1088460;54;20034;-81
2022/03/13 11:28:52;;;;;;;16.00;12.32;;;;;;;14.20;27.96;99773.81;1088544;54;20050;-83
2022/03/13 11:30:14;;;;;;;16.98;12.05;;;;;;;14.10;28.28;99772.38;1093805;46;20066;-83
2022/03/13 11:31:37;;;;;;;17.45;13.05;;;;;;;13.97;28.08;99773.75;1089132;46;20277;-81
2022/03/13 11:32:40;;;;;;;18.55;13.57;;;;;;;13.93;28.34;99771.59;1092166;46;20070;-81
2022/03/13 11:33:45;;;;;;;19.27;14.52;;;;;;;13.92;28.55;99769.91;1088400;54;20052;-82
2022/03/13 11:35:08;;;;;;;16.20;12.88;;;;;;;13.99;28.43;99771.75;1088193;54;20053;-81
2022/03/13 11:36:33;;;;;;;17.48;12.63;;;;;;;14.00;28.68;99768.03;1088243;54;20026;-81
2022/03/13 11:37:35;;;;;;;19.88;14.32;;;;;;;14.07;28.58;99762.81;1088415;54;20034;-82
2022/03/13 11:38:56;;;;;;;18.33;13.02;;;;;;;14.13;28.31;99763.94;1088369;54;20031;-82
2022/03/13 11:40:00;;;;;;;19.58;13.77;;;;;;;14.26;28.55;99753.47;1088314;54;20030;-80
2022/03/13 11:41:12;;;;;;;17.08;12.93;;;;;;;14.35;28.34;99751.59;1088339;54;20010;-82
2022/03/13 11:42:22;;;;;;;16.38;12.50;;;;;;;14.27;28.46;99751.59;1088330;54;20037;-80